sensor_id;sensor_type;location;lat;lon;timestamp;pressure;altitude;pressure_sealevel;temperature;humidity
35704;BME280;21820;51.112;13.762;2024-01-30T00:01:54;100873.13;;;20.09;49.19
35704;BME280;21820;51.112;13.762;2024-01-30T00:04:19;100872.94;;;20.12;48.85
35704;BME280;21820;51.112;13.762;2024-01-30T00:06:44;100867.91;;;20.09;48.94
35704;BME280;21820;51.112;13.762;2024-01-30T00:09:10;100869.56;;;20.10;48.61
35704;BME280;21820;51.112;13.762;2024-01-30T00:11:36;100866.06;;;20.11;48.75
35704;BME280;21820;51.112;13.762;2024-01-30T00:14:02;100869.84;;;20.20;48.89
35704;BME280;21820;51.112;13.762;2024-01-30T00:16:28;100859.25;;;20.09;48.80
35704;BME280;21820;51.112;13.762;2024-01-30T00:18:54;100870.44;;;20.11;49.00
35704;BME280;21820;51.112;13.762;2024-01-30T00:21:20;100867.06;;;20.09;48.67
35704;BME280;21820;51.112;13.762;2024-01-30T00:23:46;100859.44;;;20.06;48.86
35704;BME280;21820;51.112;13.762;2024-01-30T00:26:11;100865.19;;;20.11;48.84
35704;BME280;21820;51.112;13.762;2024-01-30T00:28:42;100838.00;;;20.01;49.59
35704;BME280;21820;51.112;13.762;2024-01-30T00:31:08;100859.59;;;20.17;48.87
35704;BME280;21820;51.112;13.762;2024-01-30T00:33:37;100862.59;;;20.11;48.90
35704;BME280;21820;51.112;13.762;2024-01-30T00:36:02;100855.78;;;20.08;48.77
35704;BME280;21820;51.112;13.762;2024-01-30T00:38:28;100853.06;;;20.10;48.70
35704;BME280;21820;51.112;13.762;2024-01-30T00:40:53;100861.84;;;20.09;48.66
35704;BME280;21820;51.112;13.762;2024-01-30T00:43:19;100857.56;;;20.08;48.48
35704;BME280;21820;51.112;13.762;2024-01-30T00:45:45;100856.63;;;20.09;49.01
35704;BME280;21820;51.112;13.762;2024-01-30T00:48:10;100850.00;;;20.03;49.78
35704;BME280;21820;51.112;13.762;2024-01-30T00:50:35;100859.84;;;20.00;50.73
35704;BME280;21820;51.112;13.762;2024-01-30T00:53:01;100854.09;;;19.95;51.10
35704;BME280;21820;51.112;13.762;2024-01-30T00:55:26;100854.34;;;19.90;50.94
35704;BME280;21820;51.112;13.762;2024-01-30T00:57:52;100854.84;;;19.83;51.37
35704;BME280;21820;51.112;13.762;2024-01-30T01:00:17;100857.38;;;19.84;51.22
35704;BME280;21820;51.112;13.762;2024-01-30T01:02:43;100868.28;;;19.77;51.71
35704;BME280;21820;51.112;13.762;2024-01-30T01:05:09;100842.44;;;19.60;51.66
35704;BME280;21820;51.112;13.762;2024-01-30T01:07:34;100875.47;;;19.73;51.46
35704;BME280;21820;51.112;13.762;2024-01-30T01:10:00;100874.84;;;19.70;51.75
35704;BME280;21820;51.112;13.762;2024-01-30T01:12:25;100863.75;;;19.66;52.00
35704;BME280;21820;51.112;13.762;2024-01-30T01:14:51;100869.06;;;19.65;51.64
35704;BME280;21820;51.112;13.762;2024-01-30T01:17:16;100859.84;;;19.73;51.53
35704;BME280;21820;51.112;13.762;2024-01-30T01:19:43;100870.50;;;19.83;50.94
35704;BME280;21820;51.112;13.762;2024-01-30T01:22:08;100856.97;;;19.90;50.47
35704;BME280;21820;51.112;13.762;2024-01-30T01:24:34;100857.59;;;19.94;50.12
35704;BME280;21820;51.112;13.762;2024-01-30T01:26:59;100858.47;;;19.94;49.43
35704;BME280;21820;51.112;13.762;2024-01-30T01:29:25;100855.84;;;19.94;49.98
35704;BME280;21820;51.112;13.762;2024-01-30T01:31:56;100850.72;;;19.93;50.06
35704;BME280;21820;51.112;13.762;2024-01-30T01:34:22;100862.72;;;19.95;49.26
35704;BME280;21820;51.112;13.762;2024-01-30T01:36:49;100855.66;;;19.97;49.47
35704;BME280;21820;51.112;13.762;2024-01-30T01:39:14;100852.19;;;19.97;49.54
35704;BME280;21820;51.112;13.762;2024-01-30T01:41:40;100853.69;;;20.01;49.03
35704;BME280;21820;51.112;13.762;2024-01-30T01:44:05;100858.91;;;20.01;49.22
35704;BME280;21820;51.112;13.762;2024-01-30T01:46:32;100848.66;;;19.98;49.72
35704;BME280;21820;51.112;13.762;2024-01-30T01:48:58;100843.91;;;19.90;49.24
35704;BME280;21820;51.112;13.762;2024-01-30T01:51:27;100860.75;;;19.99;49.22
35704;BME280;21820;51.112;13.762;2024-01-30T01:53:53;100857.41;;;19.97;48.96
35704;BME280;21820;51.112;13.762;2024-01-30T01:56:19;100848.66;;;19.98;49.23
35704;BME280;21820;51.112;13.762;2024-01-30T01:58:46;100857.25;;;20.00;49.48
35704;BME280;21820;51.112;13.762;2024-01-30T02:01:13;100857.31;;;19.98;48.92
35704;BME280;21820;51.112;13.762;2024-01-30T02:03:40;100852.84;;;20.00;49.09
35704;BME280;21820;51.112;13.762;2024-01-30T02:06:06;100820.94;;;19.83;49.34
35704;BME280;21820;51.112;13.762;2024-01-30T02:08:31;100847.59;;;20.00;49.26
35704;BME280;21820;51.112;13.762;2024-01-30T02:10:57;100842.50;;;19.99;48.91
35704;BME280;21820;51.112;13.762;2024-01-30T02:13:23;100849.47;;;19.98;48.80
35704;BME280;21820;51.112;13.762;2024-01-30T02:15:51;100844.19;;;20.00;50.20
35704;BME280;21820;51.112;13.762;2024-01-30T02:18:17;100845.09;;;19.99;50.21
35704;BME280;21820;51.112;13.762;2024-01-30T02:20:43;100841.03;;;19.95;50.23
35704;BME280;21820;51.112;13.762;2024-01-30T02:23:09;100846.63;;;19.89;50.82
35704;BME280;21820;51.112;13.762;2024-01-30T02:25:39;100841.59;;;19.86;51.15
35704;BME280;21820;51.112;13.762;2024-01-30T02:28:13;100840.22;;;19.80;51.32
35704;BME280;21820;51.112;13.762;2024-01-30T02:30:39;100839.41;;;19.80;50.95
35704;BME280;21820;51.112;13.762;2024-01-30T02:33:04;100808.53;;;19.60;51.06
35704;BME280;21820;51.112;13.762;2024-01-30T02:35:30;100831.94;;;19.74;51.98
35704;BME280;21820;51.112;13.762;2024-01-30T02:37:55;100837.91;;;19.76;52.03
35704;BME280;21820;51.112;13.762;2024-01-30T02:40:21;100831.94;;;19.74;51.57
35704;BME280;21820;51.112;13.762;2024-01-30T02:42:46;100809.44;;;19.59;51.83
35704;BME280;21820;51.112;13.762;2024-01-30T02:45:12;100834.75;;;19.71;51.62
35704;BME280;21820;51.112;13.762;2024-01-30T02:47:38;100831.03;;;19.75;51.21
35704;BME280;21820;51.112;13.762;2024-01-30T02:50:04;100801.03;;;19.68;50.54
35704;BME280;21820;51.112;13.762;2024-01-30T02:52:30;100833.69;;;19.87;50.46
35704;BME280;21820;51.112;13.762;2024-01-30T02:54:55;100829.31;;;19.88;49.89
35704;BME280;21820;51.112;13.762;2024-01-30T02:57:20;100828.16;;;19.92;49.85
35704;BME280;21820;51.112;13.762;2024-01-30T02:59:46;100834.13;;;19.94;50.05
35704;BME280;21820;51.112;13.762;2024-01-30T03:02:11;100827.34;;;19.91;49.91
35704;BME280;21820;51.112;13.762;2024-01-30T03:04:36;100826.19;;;19.95;49.56
35704;BME280;21820;51.112;13.762;2024-01-30T03:07:02;100822.75;;;19.95;49.89
35704;BME280;21820;51.112;13.762;2024-01-30T03:09:28;100821.81;;;19.96;49.48
35704;BME280;21820;51.112;13.762;2024-01-30T03:11:54;100826.09;;;19.97;49.27
35704;BME280;21820;51.112;13.762;2024-01-30T03:14:19;100830.50;;;19.96;49.46
35704;BME280;21820;51.112;13.762;2024-01-30T03:16:44;100830.38;;;19.98;48.98
35704;BME280;21820;51.112;13.762;2024-01-30T03:19:09;100822.34;;;20.01;48.94
35704;BME280;21820;51.112;13.762;2024-01-30T03:21:35;100817.25;;;19.99;49.58
35704;BME280;21820;51.112;13.762;2024-01-30T03:24:01;100817.97;;;20.01;49.25
35704;BME280;21820;51.112;13.762;2024-01-30T03:26:26;100812.56;;;20.04;48.94
35704;BME280;21820;51.112;13.762;2024-01-30T03:28:51;100819.44;;;20.05;49.23
35704;BME280;21820;51.112;13.762;2024-01-30T03:31:17;100816.94;;;20.04;49.19
35704;BME280;21820;51.112;13.762;2024-01-30T03:33:42;100819.63;;;20.02;48.61
35704;BME280;21820;51.112;13.762;2024-01-30T03:36:08;100816.94;;;20.04;48.96
35704;BME280;21820;51.112;13.762;2024-01-30T03:38:34;100815.47;;;20.00;49.21
35704;BME280;21820;51.112;13.762;2024-01-30T03:41:00;100816.94;;;20.04;48.87
35704;BME280;21820;51.112;13.762;2024-01-30T03:43:25;100819.63;;;20.02;48.70
35704;BME280;21820;51.112;13.762;2024-01-30T03:45:51;100815.47;;;20.00;50.05
35704;BME280;21820;51.112;13.762;2024-01-30T03:48:16;100817.34;;;19.98;50.06
35704;BME280;21820;51.112;13.762;2024-01-30T03:50:41;100820.88;;;19.97;50.72
35704;BME280;21820;51.112;13.762;2024-01-30T03:53:07;100815.09;;;19.92;50.61
35704;BME280;21820;51.112;13.762;2024-01-30T03:55:32;100820.22;;;19.93;50.67
35704;BME280;21820;51.112;13.762;2024-01-30T03:57:57;100820.31;;;19.92;50.70
35704;BME280;21820;51.112;13.762;2024-01-30T04:00:23;100814.41;;;19.90;51.86
35704;BME280;21820;51.112;13.762;2024-01-30T04:02:48;100815.22;;;19.90;51.97
35704;BME280;21820;51.112;13.762;2024-01-30T04:05:14;100813.53;;;19.89;51.26
35704;BME280;21820;51.112;13.762;2024-01-30T04:07:39;100810.84;;;19.91;51.74
35704;BME280;21820;51.112;13.762;2024-01-30T04:10:05;100811.13;;;19.86;51.45
35704;BME280;21820;51.112;13.762;2024-01-30T04:12:31;100805.81;;;19.88;51.60
35704;BME280;21820;51.112;13.762;2024-01-30T04:14:56;100789.50;;;19.72;50.72
35704;BME280;21820;51.112;13.762;2024-01-30T04:17:22;100810.09;;;19.89;50.81
35704;BME280;21820;51.112;13.762;2024-01-30T04:19:47;100780.72;;;19.73;49.63
35704;BME280;21820;51.112;13.762;2024-01-30T04:22:12;100811.78;;;19.90;50.18
35704;BME280;21820;51.112;13.762;2024-01-30T04:24:38;100814.19;;;19.93;49.35
35704;BME280;21820;51.112;13.762;2024-01-30T04:27:03;100808.97;;;19.93;49.50
35704;BME280;21820;51.112;13.762;2024-01-30T04:29:29;100810.00;;;19.90;50.39
35704;BME280;21820;51.112;13.762;2024-01-30T04:31:54;100807.25;;;19.79;50.25
35704;BME280;21820;51.112;13.762;2024-01-30T04:34:20;100812.03;;;19.73;50.50
35704;BME280;21820;51.112;13.762;2024-01-30T04:36:45;100807.22;;;19.67;50.33
35704;BME280;21820;51.112;13.762;2024-01-30T04:39:11;100783.75;;;19.53;51.10
35704;BME280;21820;51.112;13.762;2024-01-30T04:41:37;100772.91;;;19.59;50.60
35704;BME280;21820;51.112;13.762;2024-01-30T04:44:03;100808.44;;;20.27;48.79
35704;BME280;21820;51.112;13.762;2024-01-30T04:46:28;100798.19;;;21.37;46.26
35704;BME280;21820;51.112;13.762;2024-01-30T04:48:53;100797.81;;;22.25;44.87
35704;BME280;21820;51.112;13.762;2024-01-30T04:51:19;100771.25;;;22.75;43.37
35704;BME280;21820;51.112;13.762;2024-01-30T04:53:44;100789.97;;;23.14;42.17
35704;BME280;21820;51.112;13.762;2024-01-30T04:56:10;100789.75;;;23.71;41.59
35704;BME280;21820;51.112;13.762;2024-01-30T04:58:35;100785.50;;;23.91;40.67
35704;BME280;21820;51.112;13.762;2024-01-30T05:01:02;100799.94;;;23.96;40.74
35704;BME280;21820;51.112;13.762;2024-01-30T05:03:27;100796.97;;;24.01;40.84
35704;BME280;21820;51.112;13.762;2024-01-30T05:05:52;100791.72;;;23.90;41.23
35704;BME280;21820;51.112;13.762;2024-01-30T05:08:18;100763.00;;;23.77;41.08
35704;BME280;21820;51.112;13.762;2024-01-30T05:10:43;100799.13;;;23.09;42.03
35704;BME280;21820;51.112;13.762;2024-01-30T05:13:09;100774.50;;;22.33;43.45
35704;BME280;21820;51.112;13.762;2024-01-30T05:15:35;100793.25;;;22.16;44.35
35704;BME280;21820;51.112;13.762;2024-01-30T05:18:00;100799.13;;;21.95;44.91
35704;BME280;21820;51.112;13.762;2024-01-30T05:20:25;100798.13;;;21.85;45.44
35704;BME280;21820;51.112;13.762;2024-01-30T05:22:53;100795.25;;;22.47;43.96
35704;BME280;21820;51.112;13.762;2024-01-30T05:25:19;100784.03;;;22.45;44.28
35704;BME280;21820;51.112;13.762;2024-01-30T05:27:44;100799.28;;;22.40;44.80
35704;BME280;21820;51.112;13.762;2024-01-30T05:30:10;100794.44;;;22.12;45.37
35704;BME280;21820;51.112;13.762;2024-01-30T05:32:35;100789.88;;;22.03;45.87
35704;BME280;21820;51.112;13.762;2024-01-30T05:35:01;100780.03;;;21.82;46.14
35704;BME280;21820;51.112;13.762;2024-01-30T05:37:26;100784.13;;;21.74;46.46
35704;BME280;21820;51.112;13.762;2024-01-30T05:39:51;100788.94;;;21.56;47.74
35704;BME280;21820;51.112;13.762;2024-01-30T05:42:17;100790.94;;;21.40;47.92
35704;BME280;21820;51.112;13.762;2024-01-30T05:44:42;100794.88;;;21.22;48.46
35704;BME280;21820;51.112;13.762;2024-01-30T05:47:08;100787.19;;;21.08;48.58
35704;BME280;21820;51.112;13.762;2024-01-30T05:49:33;100792.81;;;20.77;49.03
35704;BME280;21820;51.112;13.762;2024-01-30T05:51:58;100789.88;;;20.56;49.74
35704;BME280;21820;51.112;13.762;2024-01-30T05:54:24;100799.50;;;20.43;49.40
35704;BME280;21820;51.112;13.762;2024-01-30T05:56:49;100793.22;;;20.33;49.70
35704;BME280;21820;51.112;13.762;2024-01-30T05:59:14;100790.91;;;20.29;50.57
35704;BME280;21820;51.112;13.762;2024-01-30T06:01:49;100796.56;;;20.23;50.92
35704;BME280;21820;51.112;13.762;2024-01-30T06:04:14;100787.97;;;20.21;50.59
35704;BME280;21820;51.112;13.762;2024-01-30T06:06:40;100790.88;;;20.16;50.77
35704;BME280;21820;51.112;13.762;2024-01-30T06:09:06;100786.59;;;20.15;50.75
35704;BME280;21820;51.112;13.762;2024-01-30T06:11:34;100794.50;;;20.14;50.85
35704;BME280;21820;51.112;13.762;2024-01-30T06:13:59;100792.09;;;20.11;50.87
35704;BME280;21820;51.112;13.762;2024-01-30T06:16:24;100785.19;;;20.10;50.76
35704;BME280;21820;51.112;13.762;2024-01-30T06:18:54;100791.47;;;20.07;50.35
35704;BME280;21820;51.112;13.762;2024-01-30T06:21:20;100790.41;;;20.10;50.47
35704;BME280;21820;51.112;13.762;2024-01-30T06:23:45;100802.34;;;20.14;50.92
35704;BME280;21820;51.112;13.762;2024-01-30T06:26:11;100801.94;;;20.20;49.83
35704;BME280;21820;51.112;13.762;2024-01-30T06:28:36;100805.94;;;20.25;49.77
35704;BME280;21820;51.112;13.762;2024-01-30T06:31:01;100784.63;;;20.19;49.58
35704;BME280;21820;51.112;13.762;2024-01-30T06:33:27;100792.69;;;20.28;48.74
35704;BME280;21820;51.112;13.762;2024-01-30T06:35:52;100796.78;;;20.32;49.38
35704;BME280;21820;51.112;13.762;2024-01-30T06:38:17;100790.06;;;20.16;49.61
35704;BME280;21820;51.112;13.762;2024-01-30T06:40:43;100788.97;;;20.06;50.73
35704;BME280;21820;51.112;13.762;2024-01-30T06:43:08;100794.38;;;20.03;50.60
35704;BME280;21820;51.112;13.762;2024-01-30T06:45:33;100791.03;;;20.01;50.78
35704;BME280;21820;51.112;13.762;2024-01-30T06:48:00;100782.13;;;19.91;51.12
35704;BME280;21820;51.112;13.762;2024-01-30T06:50:25;100793.09;;;19.96;51.10
35704;BME280;21820;51.112;13.762;2024-01-30T06:52:51;100792.47;;;19.92;51.10
35704;BME280;21820;51.112;13.762;2024-01-30T06:55:18;100784.72;;;19.91;51.06
35704;BME280;21820;51.112;13.762;2024-01-30T06:57:43;100788.72;;;19.96;51.24
35704;BME280;21820;51.112;13.762;2024-01-30T07:00:09;100759.63;;;19.76;51.60
35704;BME280;21820;51.112;13.762;2024-01-30T07:02:34;100789.97;;;19.91;51.41
35704;BME280;21820;51.112;13.762;2024-01-30T07:05:00;100797.03;;;19.89;51.42
35704;BME280;21820;51.112;13.762;2024-01-30T07:07:25;100803.41;;;19.85;52.04
35704;BME280;21820;51.112;13.762;2024-01-30T07:09:51;100793.16;;;19.82;51.95
35704;BME280;21820;51.112;13.762;2024-01-30T07:12:21;100781.56;;;19.73;51.52
35704;BME280;21820;51.112;13.762;2024-01-30T07:14:47;100794.00;;;19.82;51.54
35704;BME280;21820;51.112;13.762;2024-01-30T07:17:12;100804.53;;;19.81;50.64
35704;BME280;21820;51.112;13.762;2024-01-30T07:19:38;100802.66;;;19.83;51.27
35704;BME280;21820;51.112;13.762;2024-01-30T07:22:03;100797.66;;;19.80;50.96
35704;BME280;21820;51.112;13.762;2024-01-30T07:24:29;100779.88;;;19.72;50.82
35704;BME280;21820;51.112;13.762;2024-01-30T07:26:54;100808.72;;;19.83;51.04
35704;BME280;21820;51.112;13.762;2024-01-30T07:29:20;100796.50;;;19.84;50.77
35704;BME280;21820;51.112;13.762;2024-01-30T07:31:45;100790.16;;;19.88;50.96
35704;BME280;21820;51.112;13.762;2024-01-30T07:34:11;100796.97;;;20.29;49.65
35704;BME280;21820;51.112;13.762;2024-01-30T07:36:37;100799.53;;;20.56;48.72
35704;BME280;21820;51.112;13.762;2024-01-30T07:39:02;100765.22;;;20.48;48.65
35704;BME280;21820;51.112;13.762;2024-01-30T07:41:27;100798.06;;;20.77;48.58
35704;BME280;21820;51.112;13.762;2024-01-30T07:43:53;100764.38;;;20.72;48.06
35704;BME280;21820;51.112;13.762;2024-01-30T07:46:18;100798.66;;;20.93;48.29
35704;BME280;21820;51.112;13.762;2024-01-30T07:48:44;100806.41;;;20.82;48.48
35704;BME280;21820;51.112;13.762;2024-01-30T07:51:09;100804.50;;;20.84;48.65
35704;BME280;21820;51.112;13.762;2024-01-30T07:53:34;100784.03;;;20.78;48.17
35704;BME280;21820;51.112;13.762;2024-01-30T07:56:00;100808.72;;;20.74;48.68
35704;BME280;21820;51.112;13.762;2024-01-30T07:58:25;100796.16;;;20.66;48.72
35704;BME280;21820;51.112;13.762;2024-01-30T08:00:52;100802.63;;;20.61;49.25
35704;BME280;21820;51.112;13.762;2024-01-30T08:03:18;100776.69;;;20.33;49.85
35704;BME280;21820;51.112;13.762;2024-01-30T08:05:44;100797.47;;;20.22;49.84
35704;BME280;21820;51.112;13.762;2024-01-30T08:08:09;100799.84;;;20.12;50.04
35704;BME280;21820;51.112;13.762;2024-01-30T08:10:35;100793.53;;;20.02;50.67
35704;BME280;21820;51.112;13.762;2024-01-30T08:13:01;100800.84;;;19.97;50.40
35704;BME280;21820;51.112;13.762;2024-01-30T08:15:27;100794.06;;;19.95;50.88
35704;BME280;21820;51.112;13.762;2024-01-30T08:17:52;100789.75;;;19.94;50.78
35704;BME280;21820;51.112;13.762;2024-01-30T08:20:23;100793.50;;;19.90;51.06
35704;BME280;21820;51.112;13.762;2024-01-30T08:22:49;100799.53;;;19.90;50.24
35704;BME280;21820;51.112;13.762;2024-01-30T08:25:14;100795.19;;;19.91;50.36
35704;BME280;21820;51.112;13.762;2024-01-30T08:27:40;100792.47;;;19.92;50.45
35704;BME280;21820;51.112;13.762;2024-01-30T08:30:06;100764.22;;;19.72;51.35
35704;BME280;21820;51.112;13.762;2024-01-30T08:32:32;100792.88;;;19.86;53.23
35704;BME280;21820;51.112;13.762;2024-01-30T08:34:57;100798.09;;;19.86;51.85
35704;BME280;21820;51.112;13.762;2024-01-30T08:37:23;100802.06;;;19.92;51.13
35704;BME280;21820;51.112;13.762;2024-01-30T08:39:48;100769.88;;;19.79;51.15
35704;BME280;21820;51.112;13.762;2024-01-30T08:42:14;100795.63;;;19.97;51.65
35704;BME280;21820;51.112;13.762;2024-01-30T08:44:39;100786.84;;;19.98;51.03
35704;BME280;21820;51.112;13.762;2024-01-30T08:47:05;100790.38;;;19.97;51.19
35704;BME280;21820;51.112;13.762;2024-01-30T08:49:30;100798.31;;;19.96;50.66
35704;BME280;21820;51.112;13.762;2024-01-30T08:51:56;100789.38;;;20.00;50.67
35704;BME280;21820;51.112;13.762;2024-01-30T08:54:22;100783.31;;;19.99;50.97
35704;BME280;21820;51.112;13.762;2024-01-30T08:56:48;100779.09;;;19.97;50.27
35704;BME280;21820;51.112;13.762;2024-01-30T08:59:13;100796.88;;;20.04;50.47
35704;BME280;21820;51.112;13.762;2024-01-30T09:01:38;100794.59;;;20.12;49.76
35704;BME280;21820;51.112;13.762;2024-01-30T09:04:04;100816.16;;;20.16;49.78
35704;BME280;21820;51.112;13.762;2024-01-30T09:06:29;100802.94;;;20.05;50.30
35704;BME280;21820;51.112;13.762;2024-01-30T09:08:54;100804.38;;;19.96;50.70
35704;BME280;21820;51.112;13.762;2024-01-30T09:11:20;100792.59;;;19.77;50.50
35704;BME280;21820;51.112;13.762;2024-01-30T09:13:45;100818.97;;;19.86;50.96
35704;BME280;21820;51.112;13.762;2024-01-30T09:16:10;100813.09;;;19.83;51.01
35704;BME280;21820;51.112;13.762;2024-01-30T09:18:36;100813.94;;;19.83;51.56
35704;BME280;21820;51.112;13.762;2024-01-30T09:21:01;100823.53;;;19.83;51.81
35704;BME280;21820;51.112;13.762;2024-01-30T09:23:27;100830.63;;;19.81;51.92
35704;BME280;21820;51.112;13.762;2024-01-30T09:25:53;100820.09;;;19.82;52.15
35704;BME280;21820;51.112;13.762;2024-01-30T09:28:18;100824.47;;;19.82;51.50
35704;BME280;21820;51.112;13.762;2024-01-30T09:30:44;100822.91;;;19.79;52.07
35704;BME280;21820;51.112;13.762;2024-01-30T09:33:09;100826.63;;;19.75;52.03
35704;BME280;21820;51.112;13.762;2024-01-30T09:35:38;100824.88;;;19.76;52.24
35704;BME280;21820;51.112;13.762;2024-01-30T09:38:03;100826.53;;;19.77;51.58
35704;BME280;21820;51.112;13.762;2024-01-30T09:40:29;100816.63;;;19.82;51.63
35704;BME280;21820;51.112;13.762;2024-01-30T09:42:54;100816.47;;;19.85;51.36
35704;BME280;21820;51.112;13.762;2024-01-30T09:45:25;100815.41;;;19.87;51.79
35704;BME280;21820;51.112;13.762;2024-01-30T09:47:51;100812.91;;;19.86;51.64
35704;BME280;21820;51.112;13.762;2024-01-30T09:50:19;100810.28;;;19.86;51.53
35704;BME280;21820;51.112;13.762;2024-01-30T09:52:46;100803.59;;;19.82;51.50
35704;BME280;21820;51.112;13.762;2024-01-30T09:55:12;100800.69;;;19.86;52.28
35704;BME280;21820;51.112;13.762;2024-01-30T09:57:37;100794.63;;;19.86;50.64
35704;BME280;21820;51.112;13.762;2024-01-30T10:00:04;100792.22;;;19.83;50.96
35704;BME280;21820;51.112;13.762;2024-01-30T10:02:31;100794.75;;;19.84;51.16
35704;BME280;21820;51.112;13.762;2024-01-30T10:04:57;100783.13;;;19.76;50.59
35704;BME280;21820;51.112;13.762;2024-01-30T10:07:22;100788.66;;;19.84;50.93
35704;BME280;21820;51.112;13.762;2024-01-30T10:09:48;100797.44;;;19.83;50.63
35704;BME280;21820;51.112;13.762;2024-01-30T10:12:15;100788.66;;;19.84;50.20
35704;BME280;21820;51.112;13.762;2024-01-30T10:14:41;100789.97;;;19.91;50.36
35704;BME280;21820;51.112;13.762;2024-01-30T10:17:10;100782.88;;;19.93;50.39
35704;BME280;21820;51.112;13.762;2024-01-30T10:19:36;100781.00;;;19.95;50.25
35704;BME280;21820;51.112;13.762;2024-01-30T10:22:05;100759.22;;;19.82;50.61
35704;BME280;21820;51.112;13.762;2024-01-30T10:24:30;100770.34;;;19.98;50.29
35704;BME280;21820;51.112;13.762;2024-01-30T10:26:56;100779.31;;;19.94;50.69
35704;BME280;21820;51.112;13.762;2024-01-30T10:29:22;100772.63;;;19.90;50.58
35704;BME280;21820;51.112;13.762;2024-01-30T10:32:01;100771.47;;;19.94;50.79
35704;BME280;21820;51.112;13.762;2024-01-30T10:34:27;100767.75;;;19.98;50.78
35704;BME280;21820;51.112;13.762;2024-01-30T10:37:01;100767.00;;;19.96;50.79
35704;BME280;21820;51.112;13.762;2024-01-30T10:39:32;100768.50;;;20.00;50.88
35704;BME280;21820;51.112;13.762;2024-01-30T10:42:04;100759.81;;;19.99;51.12
35704;BME280;21820;51.112;13.762;2024-01-30T10:44:36;100759.69;;;19.88;51.03
35704;BME280;21820;51.112;13.762;2024-01-30T10:47:06;100762.78;;;19.81;51.36
35704;BME280;21820;51.112;13.762;2024-01-30T10:49:33;100746.47;;;19.77;50.98
35704;BME280;21820;51.112;13.762;2024-01-30T10:51:59;100745.81;;;19.61;50.94
35704;BME280;21820;51.112;13.762;2024-01-30T10:54:26;100747.13;;;19.81;51.14
35704;BME280;21820;51.112;13.762;2024-01-30T10:56:52;100742.53;;;19.84;50.38
35704;BME280;21820;51.112;13.762;2024-01-30T10:59:19;100753.09;;;19.83;50.48
35704;BME280;21820;51.112;13.762;2024-01-30T11:01:45;100754.75;;;19.84;50.38
35704;BME280;21820;51.112;13.762;2024-01-30T11:04:10;100745.78;;;19.88;50.22
35704;BME280;21820;51.112;13.762;2024-01-30T11:06:41;100721.34;;;19.76;49.92
35704;BME280;21820;51.112;13.762;2024-01-30T11:09:10;100743.72;;;19.93;50.19
35704;BME280;21820;51.112;13.762;2024-01-30T11:11:57;100728.81;;;19.95;49.98
35704;BME280;21820;51.112;13.762;2024-01-30T11:14:27;100741.84;;;19.95;50.38
35704;BME280;21820;51.112;13.762;2024-01-30T11:16:57;100708.28;;;19.76;50.28
35704;BME280;21820;51.112;13.762;2024-01-30T11:19:24;100726.47;;;19.90;50.93
35704;BME280;21820;51.112;13.762;2024-01-30T11:21:53;100723.97;;;19.89;50.47
35704;BME280;21820;51.112;13.762;2024-01-30T11:24:21;100696.38;;;19.72;51.31
35704;BME280;21820;51.112;13.762;2024-01-30T11:26:58;100726.03;;;19.84;50.94
35704;BME280;21820;51.112;13.762;2024-01-30T11:29:27;100722.50;;;19.85;51.51
35704;BME280;21820;51.112;13.762;2024-01-30T11:31:54;100727.91;;;19.82;51.49
35704;BME280;21820;51.112;13.762;2024-01-30T11:34:20;100733.13;;;19.82;51.54
35704;BME280;21820;51.112;13.762;2024-01-30T11:36:52;100715.19;;;19.77;51.85
35704;BME280;21820;51.112;13.762;2024-01-30T11:39:20;100718.94;;;19.73;51.47
35704;BME280;21820;51.112;13.762;2024-01-30T11:41:47;100712.66;;;19.76;51.24
35704;BME280;21820;51.112;13.762;2024-01-30T11:44:16;100714.31;;;19.77;51.34
35704;BME280;21820;51.112;13.762;2024-01-30T11:46:41;100719.66;;;19.75;51.38
35704;BME280;21820;51.112;13.762;2024-01-30T11:49:06;100695.19;;;19.64;51.62
35704;BME280;21820;51.112;13.762;2024-01-30T11:51:32;100708.84;;;19.81;51.58
35704;BME280;21820;51.112;13.762;2024-01-30T11:53:57;100708.53;;;19.86;51.27
35704;BME280;21820;51.112;13.762;2024-01-30T11:56:23;100705.69;;;19.89;51.06
35704;BME280;21820;51.112;13.762;2024-01-30T11:58:49;100706.66;;;19.88;50.89
35704;BME280;21820;51.112;13.762;2024-01-30T12:01:16;100708.31;;;19.89;51.29
35704;BME280;21820;51.112;13.762;2024-01-30T12:03:42;100715.41;;;19.87;50.46
35704;BME280;21820;51.112;13.762;2024-01-30T12:06:07;100713.53;;;19.89;50.40
35704;BME280;21820;51.112;13.762;2024-01-30T12:08:33;100705.59;;;19.90;50.30
35704;BME280;21820;51.112;13.762;2024-01-30T12:10:59;100690.25;;;19.86;50.36
35704;BME280;21820;51.112;13.762;2024-01-30T12:13:26;100698.09;;;19.86;51.01
35704;BME280;21820;51.112;13.762;2024-01-30T12:15:52;100701.00;;;19.81;50.49
35704;BME280;21820;51.112;13.762;2024-01-30T12:18:20;100697.56;;;19.81;51.01
35704;BME280;21820;51.112;13.762;2024-01-30T12:20:56;100693.38;;;19.78;50.77
35704;BME280;21820;51.112;13.762;2024-01-30T12:23:22;100688.44;;;19.74;51.02
35704;BME280;21820;51.112;13.762;2024-01-30T12:25:51;100698.88;;;19.74;51.01
35704;BME280;21820;51.112;13.762;2024-01-30T12:28:16;100697.22;;;19.73;51.31
35704;BME280;21820;51.112;13.762;2024-01-30T12:30:42;100693.75;;;19.72;51.44
35704;BME280;21820;51.112;13.762;2024-01-30T12:33:08;100692.22;;;19.70;52.01
35704;BME280;21820;51.112;13.762;2024-01-30T12:35:35;100677.16;;;19.61;51.49